Thomson Majesty — 9HA2188 — position and weather

sailwx.info

Track history (hours):
 
Tides and Currents Weather Stations Pressure Air Temp Water Temp Dewpoint Dewpoint Depression Visibility Wind Speed Wind Dir Waves Ship Positions

Thomson Majesty

Last reported at 2014-Jul-23 21:32 UTC. Time now 2014-Jul-29 12:46 UTC.
Position N 36°24' E 023°12'.

Length 207 m; draft 6.2 m.

Type: Passenger vessel. MMSI: 248124000.

Date/timePositionNaut miles runAvg speedWind from/ knotsBaromVisibWave heightAir tempDewpointWater temp
2014-Jul-23 21:32N 36°24' E 023°12'1313.2
2014-Jul-23 20:33N 36°36' E 023°18'1414.1
2014-Jul-23 19:33N 36°49' E 023°22'1413.6
2014-Jul-23 18:33N 37°02' E 023°28'1313.3
2014-Jul-23 17:33N 37°15' E 023°34'1212.5
2014-Jul-23 16:33N 37°26' E 023°39'1312.9
2014-Jul-23 15:33N 37°39' E 023°42'1312.9
2014-Jul-23 14:33N 37°51' E 023°37'5 4.7
2014-Jul-23 13:32N 37°56' E 023°38'0 0.0
2014-Jul-23 12:32N 37°56' E 023°38'0 0.0
2014-Jul-23 11:32N 37°56' E 023°38'0 0.0
2014-Jul-23 09:32N 37°56' E 023°38'0 0.0
2014-Jul-23 08:32N 37°56' E 023°38'0 0.0
2014-Jul-23 07:32N 37°56' E 023°38'0 0.0
2014-Jul-23 06:32N 37°56' E 023°38'0 0.0
2014-Jul-23 05:32N 37°56' E 023°38'1 0.5
2014-Jul-23 03:31N 37°56' E 023°37'6 6.1
2014-Jul-23 02:33N 37°50' E 023°39'2115.5
2014-Jul-23 01:10N 37°36' E 023°59'1215.3
2014-Jul-23 00:24N 37°31' E 024°12'1214.0
2014-Jul-22 23:33N 37°32' E 024°27'1615.6
2014-Jul-22 22:33N 37°32' E 024°47'1616.1
2014-Jul-22 21:33N 37°30' E 025°07'1514.6
2014-Jul-22 20:32N 37°34' E 025°26'1313.7
2014-Jul-22 19:33N 37°37' E 025°42'1414.2
2014-Jul-22 18:33N 37°41' E 025°59'1514.4
2014-Jul-22 17:33N 37°45' E 026°17'1414.3
2014-Jul-22 16:33N 37°49' E 026°34'1414.0
2014-Jul-22 15:33N 37°51' E 026°52'19 1.2
2014-Jul-21 23:28N 37°40' E 026°33'1112.2
2014-Jul-21 22:32N 37°31' E 026°42'1211.9
2014-Jul-21 21:32N 37°21' E 026°50'1212.4
2014-Jul-21 20:33N 37°11' E 026°58'312.5
2014-Jul-21 20:17N 37°08' E 027°00'29 1.5
2014-Jul-21 01:33N 36°39' E 027°00'1312.8
2014-Jul-21 00:33N 36°33' E 026°46'1312.7
2014-Jul-20 23:33N 36°28' E 026°32'1212.0
2014-Jul-20 22:33N 36°18' E 026°24'1212.2
2014-Jul-20 21:33N 36°07' E 026°16'1311.9
2014-Jul-20 20:28N 35°55' E 026°10'1212.2
2014-Jul-20 19:29N 35°45' E 026°03'1212.8
2014-Jul-20 18:31N 35°34' E 025°56'11 0.7
2014-Jul-20 02:32N 35°28' E 025°45'1313.3
2014-Jul-20 01:33N 35°30' E 025°29'1313.4
2014-Jul-20 00:33N 35°32' E 025°13'1414.1
2014-Jul-19 23:32N 35°36' E 024°56'1714.3
2014-Jul-19 22:22N 35°41' E 024°36'1214.1
2014-Jul-19 21:33N 35°44' E 024°22'1414.1
2014-Jul-19 20:33N 35°48' E 024°06'1414.2
2014-Jul-19 19:33N 35°52' E 023°49'7414.6
2014-Jul-19 14:27N 36°19' E 022°23'  
Track history (hours):
 
Tides and Currents Weather Stations Pressure Air Temp Water Temp Dewpoint Dewpoint Depression Visibility Wind Speed Wind Dir Waves Ship Positions

Thomson Majesty

Last reported at 2014-Jul-23 21:32 UTC. Time now 2014-Jul-29 12:46 UTC.
Position N 36°24' E 023°12'.

Length 207 m; draft 6.2 m.

Type: Passenger vessel. MMSI: 248124000.

Date/timePositionNaut miles runAvg speedWind from/ knotsBaromVisibWave heightAir tempDewpointWater temp
2014-Jul-23 21:32N 36°24' E 023°12'1313.2
2014-Jul-23 20:33N 36°36' E 023°18'1414.1
2014-Jul-23 19:33N 36°49' E 023°22'1413.6
2014-Jul-23 18:33N 37°02' E 023°28'1313.3
2014-Jul-23 17:33N 37°15' E 023°34'1212.5
2014-Jul-23 16:33N 37°26' E 023°39'1312.9
2014-Jul-23 15:33N 37°39' E 023°42'1312.9
2014-Jul-23 14:33N 37°51' E 023°37'5 4.7
2014-Jul-23 13:32N 37°56' E 023°38'0 0.0
2014-Jul-23 12:32N 37°56' E 023°38'0 0.0
2014-Jul-23 11:32N 37°56' E 023°38'0 0.0
2014-Jul-23 09:32N 37°56' E 023°38'0 0.0
2014-Jul-23 08:32N 37°56' E 023°38'0 0.0
2014-Jul-23 07:32N 37°56' E 023°38'0 0.0
2014-Jul-23 06:32N 37°56' E 023°38'0 0.0
2014-Jul-23 05:32N 37°56' E 023°38'1 0.5
2014-Jul-23 03:31N 37°56' E 023°37'6 6.1
2014-Jul-23 02:33N 37°50' E 023°39'2115.5
2014-Jul-23 01:10N 37°36' E 023°59'1215.3
2014-Jul-23 00:24N 37°31' E 024°12'1214.0
2014-Jul-22 23:33N 37°32' E 024°27'1615.6
2014-Jul-22 22:33N 37°32' E 024°47'1616.1
2014-Jul-22 21:33N 37°30' E 025°07'1514.6
2014-Jul-22 20:32N 37°34' E 025°26'1313.7
2014-Jul-22 19:33N 37°37' E 025°42'1414.2
2014-Jul-22 18:33N 37°41' E 025°59'1514.4
2014-Jul-22 17:33N 37°45' E 026°17'1414.3
2014-Jul-22 16:33N 37°49' E 026°34'1414.0
2014-Jul-22 15:33N 37°51' E 026°52'19 1.2
2014-Jul-21 23:28N 37°40' E 026°33'1112.2
2014-Jul-21 22:32N 37°31' E 026°42'1211.9
2014-Jul-21 21:32N 37°21' E 026°50'1212.4
2014-Jul-21 20:33N 37°11' E 026°58'312.5
2014-Jul-21 20:17N 37°08' E 027°00'29 1.5
2014-Jul-21 01:33N 36°39' E 027°00'1312.8
2014-Jul-21 00:33N 36°33' E 026°46'1312.7
2014-Jul-20 23:33N 36°28' E 026°32'1212.0
2014-Jul-20 22:33N 36°18' E 026°24'1212.2
2014-Jul-20 21:33N 36°07' E 026°16'1311.9
2014-Jul-20 20:28N 35°55' E 026°10'1212.2
2014-Jul-20 19:29N 35°45' E 026°03'1212.8
2014-Jul-20 18:31N 35°34' E 025°56'11 0.7
2014-Jul-20 02:32N 35°28' E 025°45'1313.3
2014-Jul-20 01:33N 35°30' E 025°29'1313.4
2014-Jul-20 00:33N 35°32' E 025°13'1414.1
2014-Jul-19 23:32N 35°36' E 024°56'1714.3
2014-Jul-19 22:22N 35°41' E 024°36'1214.1
2014-Jul-19 21:33N 35°44' E 024°22'1414.1
2014-Jul-19 20:33N 35°48' E 024°06'1414.2
2014-Jul-19 19:33N 35°52' E 023°49'7414.6
2014-Jul-19 14:27N 36°19' E 022°23'  

Dump ship's entire track history